Time;durP1;ratioP1;P1;durP2;ratioP2;P2;SDS_P1;SDS_P2;PMS_P1;PMS_P2;Temp;Humidity;BMP_temperature;BMP_pressure;BME280_temperature;BME280_humidity;BME280_pressure;Samples;Min_cycle;Max_cycle;Signal;HPM_P1;HPM_P2
2023/05/26 00:01:15;;;;;;;9.37;4.27;;;12.00;99.90;;;;;;4194702;28;20217;-77
2023/05/26 00:03:17;;;;;;;8.27;4.13;;;12.00;99.90;;;;;;4197448;28;20613;-77
2023/05/26 00:05:20;;;;;;;9.00;4.00;;;12.00;99.90;;;;;;4198967;28;20313;-77
2023/05/26 00:07:22;;;;;;;8.87;4.00;;;11.90;99.90;;;;;;4197575;28;20320;-77
2023/05/26 00:09:24;;;;;;;8.17;4.20;;;11.90;99.90;;;;;;4196587;28;20245;-77
2023/05/26 00:11:28;;;;;;;8.23;4.17;;;11.90;99.90;;;;;;4197864;28;20220;-75
2023/05/26 00:13:32;;;;;;;9.60;4.40;;;11.90;99.90;;;;;;4198351;28;20300;-76
2023/05/26 00:15:33;;;;;;;7.80;4.17;;;11.80;99.90;;;;;;4193350;28;20240;-78
2023/05/26 00:17:37;;;;;;;11.30;4.60;;;11.80;99.90;;;;;;4195071;28;20313;-77
2023/05/26 00:19:39;;;;;;;9.40;4.80;;;11.80;99.90;;;;;;4195367;28;20256;-77
2023/05/26 00:21:41;;;;;;;7.13;4.27;;;11.70;99.90;;;;;;4191881;28;20216;-77
2023/05/26 00:23:43;;;;;;;7.83;4.30;;;11.80;99.90;;;;;;4191550;28;20631;-78
2023/05/26 00:25:45;;;;;;;9.03;4.47;;;11.70;99.90;;;;;;4191910;28;20219;-77
2023/05/26 00:27:47;;;;;;;6.67;4.07;;;11.70;99.90;;;;;;4193249;28;20241;-77
2023/05/26 00:29:50;;;;;;;7.33;3.63;;;11.70;99.90;;;;;;4192469;28;20228;-77
2023/05/26 00:31:52;;;;;;;9.57;4.50;;;11.60;99.90;;;;;;4192882;28;20222;-77
2023/05/26 00:33:54;;;;;;;9.37;4.30;;;11.60;99.90;;;;;;4190297;28;20256;-77
2023/05/26 00:35:56;;;;;;;7.83;4.27;;;11.60;99.90;;;;;;4192099;28;20247;-77
2023/05/26 00:37:58;;;;;;;8.00;4.70;;;11.60;99.90;;;;;;4191571;28;20920;-78
2023/05/26 00:40:00;;;;;;;10.50;5.10;;;11.50;99.90;;;;;;4193176;28;20303;-77
2023/05/26 00:42:02;;;;;;;8.77;4.63;;;11.50;99.90;;;;;;4191957;28;20237;-77
2023/05/26 00:44:04;;;;;;;7.70;4.30;;;11.50;99.90;;;;;;4193185;28;20206;-78
2023/05/26 00:46:08;;;;;;;8.43;4.87;;;11.40;99.90;;;;;;4193503;28;20567;-76
2023/05/26 00:48:10;;;;;;;9.43;4.90;;;11.40;99.90;;;;;;4192522;28;20213;-76
2023/05/26 00:50:12;;;;;;;11.70;4.50;;;11.40;99.90;;;;;;4191801;28;20293;-77
2023/05/26 00:52:14;;;;;;;5.87;3.90;;;11.40;99.90;;;;;;4192148;28;20702;-76
2023/05/26 00:54:16;;;;;;;8.70;4.20;;;11.30;99.90;;;;;;4192595;28;20834;-78
2023/05/26 00:56:18;;;;;;;9.37;4.60;;;11.30;99.90;;;;;;4192963;28;20263;-77
2023/05/26 00:58:21;;;;;;;6.57;4.23;;;11.30;99.90;;;;;;4191331;28;20233;-77
2023/05/26 01:00:23;;;;;;;9.27;4.70;;;11.20;99.90;;;;;;4189317;28;20233;-76
2023/05/26 01:02:28;;;;;;;9.23;4.80;;;11.50;99.90;;;;;;4191117;28;20726;-76
2023/05/26 01:04:30;;;;;;;11.77;4.93;;;11.20;99.90;;;;;;4190950;28;20224;-77
2023/05/26 01:06:34;;;;;;;8.93;4.40;;;11.10;99.90;;;;;;4191284;28;20677;-78
2023/05/26 01:08:36;;;;;;;11.00;5.30;;;11.10;99.90;;;;;;4191129;28;20266;-78
2023/05/26 01:10:38;;;;;;;10.30;5.00;;;11.10;99.90;;;;;;4192165;28;20762;-77
2023/05/26 01:12:45;;;;;;;8.17;4.77;;;11.10;99.90;;;;;;4190254;28;20287;-77
2023/05/26 01:14:54;;;;;;;8.80;4.47;;;11.00;99.90;;;;;;4191261;28;20263;-77
2023/05/26 01:17:01;;;;;;;8.00;4.50;;;11.00;99.90;;;;;;4190279;28;20904;-76
2023/05/26 01:19:16;;;;;;;11.53;4.43;;;11.00;99.90;;;;;;4191157;28;20551;-77
2023/05/26 01:21:18;;;;;;;10.47;4.97;;;10.90;99.90;;;;;;4192432;28;20605;-76
2023/05/26 01:23:46;;;;;;;10.03;5.23;;;10.90;99.90;;;;;;4193239;28;20331;-77
2023/05/26 01:26:30;;;;;;;8.70;4.57;;;10.90;99.90;;;;;;4189503;28;20211;-74
2023/05/26 01:28:35;;;;;;;7.07;4.33;;;10.90;99.90;;;;;;4167260;28;20303;-76
2023/05/26 01:30:39;;;;;;;6.83;4.03;;;10.80;99.90;;;;;;4193833;28;20332;-76
2023/05/26 01:32:49;;;;;;;8.87;4.53;;;10.80;99.90;;;;;;4193495;28;20260;-76
2023/05/26 01:34:51;;;;;;;7.90;4.37;;;10.80;99.90;;;;;;4194350;28;20240;-77
2023/05/26 01:36:53;;;;;;;8.87;4.93;;;10.70;99.90;;;;;;4192032;28;20317;-77
2023/05/26 01:38:55;;;;;;;8.63;4.83;;;10.80;99.90;;;;;;4191040;28;20308;-78
2023/05/26 01:41:06;;;;;;;9.77;4.90;;;10.70;99.90;;;;;;4190547;28;20259;-78
2023/05/26 01:43:13;;;;;;;9.03;5.00;;;10.70;99.90;;;;;;4189556;28;20218;-78
2023/05/26 01:45:21;;;;;;;6.60;4.13;;;10.70;99.90;;;;;;4190777;28;20210;-77
2023/05/26 01:47:25;;;;;;;7.33;4.57;;;10.70;99.90;;;;;;4191250;28;20203;-78
2023/05/26 01:49:31;;;;;;;9.17;4.87;;;11.00;99.90;;;;;;4191078;28;20266;-78
2023/05/26 01:51:35;;;;;;;11.97;5.43;;;10.60;99.90;;;;;;4186905;28;20260;-77
2023/05/26 01:53:42;;;;;;;9.17;5.60;;;10.60;99.90;;;;;;4188249;28;20208;-78
2023/05/26 01:55:45;;;;;;;9.50;4.93;;;10.60;99.90;;;;;;4190705;28;20442;-78
2023/05/26 01:57:49;;;;;;;11.20;5.40;;;10.50;99.90;;;;;;4191030;28;20215;-78
2023/05/26 01:59:52;;;;;;;10.27;4.83;;;10.50;99.90;;;;;;4191877;28;20598;-78
2023/05/26 02:01:55;;;;;;;7.93;5.03;;;10.50;99.90;;;;;;4189038;28;20701;-76
2023/05/26 02:03:57;;;;;;;8.90;4.80;;;10.50;99.90;;;;;;4190167;28;20323;-78
2023/05/26 02:05:59;;;;;;;7.20;4.60;;;10.60;99.90;;;;;;4190433;28;20295;-78
2023/05/26 02:08:01;;;;;;;7.70;4.53;;;10.60;99.90;;;;;;4189525;28;20303;-77
2023/05/26 02:10:04;;;;;;;6.37;4.03;;;10.50;99.90;;;;;;4190118;28;20290;-76
2023/05/26 02:12:07;;;;;;;8.17;4.57;;;10.50;99.90;;;;;;4184269;28;20219;-78
2023/05/26 02:14:08;;;;;;;8.87;4.67;;;10.50;99.90;;;;;;4182811;28;20227;-78
2023/05/26 02:16:11;;;;;;;7.43;4.50;;;10.50;99.90;;;;;;4185539;28;20692;-78
2023/05/26 02:18:15;;;;;;;11.80;5.40;;;10.50;99.90;;;;;;4188592;28;20290;-78
2023/05/26 02:20:17;;;;;;;8.13;4.63;;;10.50;99.90;;;;;;4191332;28;20221;-77
2023/05/26 02:22:19;;;;;;;9.87;5.07;;;10.50;99.90;;;;;;4190469;28;20341;-77
2023/05/26 02:24:22;;;;;;;7.90;4.90;;;10.50;99.90;;;;;;4189608;28;20755;-78
2023/05/26 02:26:24;;;;;;;9.87;4.60;;;10.50;99.90;;;;;;4191089;28;20921;-77
2023/05/26 02:28:26;;;;;;;9.57;4.60;;;10.50;99.90;;;;;;4183364;28;20344;-78
2023/05/26 02:30:28;;;;;;;7.17;4.63;;;10.50;99.90;;;;;;4184005;28;20655;-77
2023/05/26 02:32:30;;;;;;;8.37;5.23;;;10.50;99.90;;;;;;4186593;28;20221;-78
2023/05/26 02:34:33;;;;;;;10.43;4.60;;;10.60;99.90;;;;;;4188509;28;20332;-78
2023/05/26 02:36:36;;;;;;;7.73;4.80;;;10.50;99.90;;;;;;4191752;28;20228;-78
2023/05/26 02:38:38;;;;;;;9.80;5.10;;;10.50;99.90;;;;;;4190536;28;20216;-77
2023/05/26 02:40:39;;;;;;;10.57;5.07;;;10.50;99.90;;;;;;4191867;28;20227;-77
2023/05/26 02:42:41;;;;;;;9.90;5.50;;;10.50;99.90;;;;;;4191462;28;20991;-78
2023/05/26 02:44:43;;;;;;;8.53;5.17;;;10.50;99.90;;;;;;4191321;28;20244;-78
2023/05/26 02:46:45;;;;;;;11.20;5.87;;;10.50;99.90;;;;;;4192000;28;20304;-77
2023/05/26 02:48:47;;;;;;;10.33;5.67;;;10.50;99.90;;;;;;4192330;28;20295;-78
2023/05/26 02:50:50;;;;;;;15.70;6.20;;;10.40;99.90;;;;;;4188934;28;20297;-77
2023/05/26 02:52:52;;;;;;;9.03;5.80;;;10.40;99.90;;;;;;4189241;28;20211;-77
2023/05/26 02:54:54;;;;;;;12.47;6.10;;;10.40;99.90;;;;;;4188550;28;20305;-77
2023/05/26 02:56:56;;;;;;;11.27;5.70;;;10.40;99.90;;;;;;4189383;28;20306;-77
2023/05/26 02:58:58;;;;;;;10.90;5.77;;;10.30;99.90;;;;;;4190599;28;20212;-77
2023/05/26 03:01:00;;;;;;;11.70;5.60;;;10.30;99.90;;;;;;4191155;28;20243;-77
2023/05/26 03:03:02;;;;;;;11.63;6.07;;;10.30;99.90;;;;;;4188299;28;20221;-76
2023/05/26 03:05:05;;;;;;;10.70;5.73;;;10.30;99.90;;;;;;4189615;28;20238;-77
2023/05/26 03:07:09;;;;;;;11.43;5.90;;;10.30;99.90;;;;;;4188810;28;20743;-76
2023/05/26 03:09:11;;;;;;;13.20;6.10;;;10.20;99.90;;;;;;4192266;28;20215;-76
2023/05/26 03:11:13;;;;;;;11.67;6.33;;;10.20;99.90;;;;;;4192691;28;20315;-76
2023/05/26 03:13:15;;;;;;;12.57;6.50;;;10.20;99.90;;;;;;4189942;28;20223;-76
2023/05/26 03:15:17;;;;;;;11.73;6.30;;;10.20;99.90;;;;;;4191552;28;20225;-76
2023/05/26 03:17:22;;;;;;;13.67;6.67;;;10.10;99.90;;;;;;4192872;28;20223;-77
2023/05/26 03:19:24;;;;;;;16.47;6.67;;;10.20;99.90;;;;;;4190836;28;20214;-77
2023/05/26 03:21:26;;;;;;;11.73;6.50;;;10.10;99.90;;;;;;4191756;28;20303;-77
2023/05/26 03:23:29;;;;;;;13.73;5.70;;;10.00;99.90;;;;;;4191615;28;20221;-76
2023/05/26 03:25:31;;;;;;;13.33;6.10;;;10.00;99.90;;;;;;4188367;28;20743;-77
2023/05/26 03:27:33;;;;;;;14.73;6.37;;;10.00;99.90;;;;;;4192599;28;20218;-76
2023/05/26 03:29:35;;;;;;;11.67;6.27;;;10.00;99.90;;;;;;4187800;28;20226;-77
2023/05/26 03:31:37;;;;;;;13.10;6.23;;;9.90;99.90;;;;;;4191031;28;20228;-77
2023/05/26 03:33:39;;;;;;;12.97;6.27;;;9.90;99.90;;;;;;4190828;28;20203;-76
2023/05/26 03:35:41;;;;;;;9.80;6.00;;;9.90;99.90;;;;;;4190036;28;20262;-77
2023/05/26 03:37:43;;;;;;;13.27;6.13;;;10.10;99.90;;;;;;4195332;28;20361;-77
2023/05/26 03:39:46;;;;;;;12.40;6.40;;;10.00;99.90;;;;;;4194837;28;20236;-77
2023/05/26 03:41:48;;;;;;;16.87;6.40;;;9.80;99.90;;;;;;4195561;28;20218;-77
2023/05/26 03:43:50;;;;;;;12.53;6.00;;;9.80;99.90;;;;;;4195584;28;20246;-76
2023/05/26 03:45:52;;;;;;;14.30;6.77;;;9.80;99.90;;;;;;4193787;28;20238;-76
2023/05/26 03:47:56;;;;;;;11.83;5.53;;;9.80;99.90;;;;;;4195045;28;20721;-76
2023/05/26 03:49:58;;;;;;;15.83;6.03;;;9.70;99.90;;;;;;4193465;28;20333;-77
2023/05/26 03:52:00;;;;;;;15.57;6.27;;;9.70;99.90;;;;;;4192703;28;20245;-76
2023/05/26 03:54:02;;;;;;;11.20;5.87;;;9.70;99.90;;;;;;4193633;28;20814;-76
2023/05/26 03:56:06;;;;;;;12.40;5.67;;;9.70;99.90;;;;;;4194309;28;20264;-77
2023/05/26 03:58:07;;;;;;;15.60;6.20;;;9.70;99.90;;;;;;4193724;28;20592;-78
2023/05/26 04:00:11;;;;;;;11.83;5.47;;;9.70;99.90;;;;;;4193942;28;20272;-77
2023/05/26 04:02:13;;;;;;;15.17;5.83;;;9.70;99.90;;;;;;4194922;28;20214;-78
2023/05/26 04:04:15;;;;;;;15.97;5.77;;;9.60;99.90;;;;;;4191679;28;20233;-76
2023/05/26 04:06:17;;;;;;;13.93;5.80;;;9.60;99.90;;;;;;4193228;28;20197;-76
2023/05/26 04:08:19;;;;;;;12.63;5.90;;;9.60;99.90;;;;;;4189954;28;20775;-76
2023/05/26 04:10:20;;;;;;;13.00;6.13;;;9.50;99.90;;;;;;4191391;28;20226;-76
2023/05/26 04:12:24;;;;;;;15.23;6.37;;;9.60;99.90;;;;;;4192954;28;20215;-77
2023/05/26 04:14:26;;;;;;;18.37;6.63;;;9.60;99.90;;;;;;4189231;28;20207;-76
2023/05/26 04:16:28;;;;;;;10.60;5.53;;;9.60;99.90;;;;;;4189147;28;20248;-76
2023/05/26 04:18:30;;;;;;;13.27;5.73;;;9.60;99.90;;;;;;4192534;28;20210;-78
2023/05/26 04:20:32;;;;;;;11.03;5.47;;;9.60;99.90;;;;;;4193399;28;20245;-76
2023/05/26 04:22:34;;;;;;;12.77;5.50;;;9.60;99.90;;;;;;4193203;28;20281;-76
2023/05/26 04:24:36;;;;;;;12.83;5.53;;;9.60;99.90;;;;;;4192395;28;20305;-76
2023/05/26 04:26:38;;;;;;;13.27;5.43;;;9.70;99.90;;;;;;4197396;28;20229;-75
2023/05/26 04:28:42;;;;;;;13.80;5.87;;;9.60;99.90;;;;;;4193654;28;20286;-76
2023/05/26 04:30:44;;;;;;;14.40;5.90;;;9.60;99.90;;;;;;4197939;28;20233;-76
2023/05/26 04:32:47;;;;;;;9.03;5.40;;;9.60;99.90;;;;;;4197514;28;20915;-76
2023/05/26 04:34:49;;;;;;;13.83;5.97;;;9.60;99.90;;;;;;4194418;28;20223;-76
2023/05/26 04:36:51;;;;;;;11.90;5.63;;;9.60;99.90;;;;;;4195266;28;20908;-76
2023/05/26 04:38:54;;;;;;;12.37;5.53;;;9.60;99.90;;;;;;4195697;28;20233;-75
2023/05/26 04:40:57;;;;;;;12.40;5.83;;;9.60;99.90;;;;;;4195529;28;20315;-75
2023/05/26 04:43:00;;;;;;;14.60;6.13;;;9.60;99.90;;;;;;4192886;28;20241;-77
2023/05/26 04:45:03;;;;;;;12.90;5.97;;;9.60;99.90;;;;;;4195194;28;20221;-77
2023/05/26 04:47:08;;;;;;;16.27;6.00;;;9.60;99.90;;;;;;4195440;28;20223;-76
2023/05/26 04:49:10;;;;;;;18.57;6.40;;;9.70;99.90;;;;;;4197343;28;20344;-75
2023/05/26 04:51:12;;;;;;;16.60;6.83;;;9.70;99.90;;;;;;4191874;28;20290;-75
2023/05/26 04:53:14;;;;;;;14.03;6.03;;;9.60;99.90;;;;;;4193869;28;20206;-76
2023/05/26 04:55:16;;;;;;;13.83;6.07;;;9.70;99.90;;;;;;4195261;28;20212;-76
2023/05/26 04:57:21;;;;;;;16.10;6.57;;;9.70;99.90;;;;;;4195436;28;20257;-76
2023/05/26 04:59:23;;;;;;;15.33;5.97;;;9.70;99.90;;;;;;4195016;28;20198;-77
2023/05/26 05:01:26;;;;;;;12.17;5.97;;;9.70;99.90;;;;;;4196989;28;20221;-75
2023/05/26 05:03:28;;;;;;;12.93;6.77;;;9.70;99.90;;;;;;4197429;28;20230;-77
2023/05/26 05:05:30;;;;;;;12.77;5.77;;;9.70;99.90;;;;;;4194115;28;20544;-78
2023/05/26 05:07:32;;;;;;;13.23;5.77;;;9.70;99.90;;;;;;4196161;28;20294;-77
2023/05/26 05:09:34;;;;;;;14.90;5.97;;;9.80;99.90;;;;;;4195268;28;21294;-77
2023/05/26 05:11:36;;;;;;;21.10;6.50;;;9.80;99.90;;;;;;4196118;28;20633;-77
2023/05/26 05:13:38;;;;;;;15.77;5.93;;;9.80;99.90;;;;;;4196521;28;20238;-77
2023/05/26 05:15:40;;;;;;;14.33;6.60;;;9.80;99.90;;;;;;4193020;28;20206;-78
2023/05/26 05:17:43;;;;;;;17.00;6.17;;;9.70;99.90;;;;;;4195705;28;20729;-77
2023/05/26 05:19:45;;;;;;;13.77;6.13;;;9.90;99.90;;;;;;4195604;28;20258;-78
2023/05/26 05:21:47;;;;;;;14.30;6.03;;;9.90;99.90;;;;;;4196348;28;20309;-78
2023/05/26 05:23:49;;;;;;;14.40;5.90;;;9.90;99.90;;;;;;4195507;28;20586;-78
2023/05/26 05:25:52;;;;;;;17.47;5.97;;;9.90;99.90;;;;;;4196467;28;20222;-78
2023/05/26 05:27:54;;;;;;;15.77;5.83;;;9.90;99.90;;;;;;4196567;28;20208;-76
2023/05/26 05:29:59;;;;;;;15.83;6.67;;;10.00;99.90;;;;;;4195814;28;20277;-77
2023/05/26 05:32:02;;;;;;;12.73;5.53;;;10.00;99.90;;;;;;4195470;28;20238;-77
2023/05/26 05:34:05;;;;;;;15.03;6.33;;;10.00;99.90;;;;;;4195986;28;20264;-78
2023/05/26 05:36:10;;;;;;;15.53;5.27;;;10.10;99.90;;;;;;4193972;28;20699;-77
2023/05/26 05:38:13;;;;;;;15.13;5.57;;;10.10;99.90;;;;;;4195452;28;20214;-77
2023/05/26 05:40:15;;;;;;;15.43;5.63;;;10.10;99.90;;;;;;4195964;28;20249;-76
2023/05/26 05:42:16;;;;;;;13.40;5.10;;;10.10;99.90;;;;;;4194853;28;20308;-77
2023/05/26 05:44:18;;;;;;;14.03;5.57;;;10.20;99.90;;;;;;4194852;28;20937;-78
2023/05/26 05:46:20;;;;;;;18.40;6.30;;;10.30;99.90;;;;;;4194807;28;20214;-77
2023/05/26 05:48:22;;;;;;;13.63;5.83;;;10.30;99.90;;;;;;4192964;28;20221;-78
2023/05/26 05:50:28;;;;;;;13.07;5.23;;;10.30;99.90;;;;;;4193637;28;20230;-78
2023/05/26 05:52:30;;;;;;;18.83;6.27;;;10.30;99.90;;;;;;4194955;28;20198;-77
2023/05/26 05:54:32;;;;;;;16.87;5.40;;;10.40;99.90;;;;;;4194477;28;20531;-77
2023/05/26 05:56:34;;;;;;;16.50;5.67;;;10.40;99.90;;;;;;4194484;28;20228;-77
2023/05/26 05:58:36;;;;;;;16.93;6.63;;;10.50;99.90;;;;;;4194481;28;20208;-77
2023/05/26 06:00:38;;;;;;;13.20;5.17;;;10.50;99.90;;;;;;4194171;28;20341;-76
2023/05/26 06:02:39;;;;;;;15.13;5.83;;;10.50;99.90;;;;;;4195949;28;20239;-76
2023/05/26 06:04:41;;;;;;;16.53;5.53;;;10.60;99.90;;;;;;4194122;28;20223;-77
2023/05/26 06:06:45;;;;;;;12.67;5.00;;;10.60;99.90;;;;;;4194903;28;20206;-76
2023/05/26 06:08:47;;;;;;;14.87;5.23;;;10.70;99.90;;;;;;4195129;28;20722;-77
2023/05/26 06:10:49;;;;;;;16.57;5.40;;;10.80;99.90;;;;;;4194306;28;20236;-77
2023/05/26 06:12:51;;;;;;;17.43;5.70;;;10.80;99.90;;;;;;4194703;28;20298;-76
2023/05/26 06:14:53;;;;;;;25.73;6.23;;;10.80;99.90;;;;;;4192720;28;21540;-77
2023/05/26 06:16:55;;;;;;;14.80;5.10;;;10.90;99.90;;;;;;4192349;28;20228;-77
2023/05/26 06:18:56;;;;;;;20.03;5.63;;;10.90;99.90;;;;;;4179010;28;20333;-75
2023/05/26 06:20:58;;;;;;;19.80;5.43;;;11.00;99.90;;;;;;4178025;28;20358;-77
2023/05/26 06:23:02;;;;;;;13.40;5.47;;;11.00;99.90;;;;;;4191423;28;20303;-77
2023/05/26 06:25:04;;;;;;;16.53;5.20;;;11.10;99.90;;;;;;4193289;28;20535;-76
2023/05/26 06:27:07;;;;;;;20.67;5.57;;;11.10;99.90;;;;;;4191437;28;20205;-76
2023/05/26 06:29:08;;;;;;;17.27;5.50;;;11.20;99.90;;;;;;4194894;28;20922;-76
2023/05/26 06:31:10;;;;;;;14.73;5.00;;;11.30;99.90;;;;;;4193374;28;20205;-76
2023/05/26 06:33:12;;;;;;;15.17;5.60;;;11.30;99.90;;;;;;4194106;28;20214;-76
2023/05/26 06:35:14;;;;;;;15.63;5.27;;;11.40;99.90;;;;;;4193449;28;20327;-76
2023/05/26 06:37:16;;;;;;;17.67;5.17;;;11.40;99.90;;;;;;4194048;28;20293;-76
2023/05/26 06:39:19;;;;;;;17.13;5.87;;;11.40;99.90;;;;;;4194955;28;20782;-76
2023/05/26 06:41:21;;;;;;;15.63;5.03;;;11.50;99.90;;;;;;4197088;28;20211;-77
2023/05/26 06:43:23;;;;;;;19.20;6.07;;;11.50;99.90;;;;;;4197912;28;20239;-77
2023/05/26 06:45:25;;;;;;;17.30;5.80;;;11.60;99.90;;;;;;4194220;28;20306;-78
2023/05/26 06:47:27;;;;;;;17.40;5.80;;;11.70;99.90;;;;;;4194624;28;20295;-77
2023/05/26 06:49:29;;;;;;;17.30;5.17;;;11.70;99.90;;;;;;4193859;28;20224;-77
2023/05/26 06:51:31;;;;;;;18.73;5.63;;;11.80;99.90;;;;;;4192590;28;20679;-77
2023/05/26 06:53:34;;;;;;;18.93;5.90;;;11.80;99.90;;;;;;4192354;28;20556;-77
2023/05/26 06:55:37;;;;;;;13.73;5.60;;;11.90;99.90;;;;;;4187079;28;20223;-75
2023/05/26 06:57:39;;;;;;;18.23;5.13;;;12.00;99.90;;;;;;4190216;28;20229;-77
2023/05/26 06:59:42;;;;;;;20.73;6.03;;;12.10;99.90;;;;;;4192910;28;20244;-76
2023/05/26 07:01:44;;;;;;;17.00;5.20;;;12.20;99.90;;;;;;4190930;28;20311;-77
2023/05/26 07:03:46;;;;;;;19.40;4.87;;;12.30;99.90;;;;;;4190068;28;20205;-77
2023/05/26 07:05:48;;;;;;;14.57;4.70;;;12.40;99.90;;;;;;4193421;28;20213;-77
2023/05/26 07:07:50;;;;;;;11.33;4.50;;;12.40;99.90;;;;;;4194766;28;20210;-77
2023/05/26 07:09:52;;;;;;;10.70;3.97;;;12.50;99.90;;;;;;4195024;28;20225;-77
2023/05/26 07:11:55;;;;;;;14.67;4.50;;;12.60;99.90;;;;;;4193417;28;20732;-78
2023/05/26 07:13:57;;;;;;;10.67;4.10;;;12.80;99.90;;;;;;4195197;28;20198;-78
2023/05/26 07:15:59;;;;;;;12.93;4.70;;;12.80;99.90;;;;;;4194187;28;20304;-77
2023/05/26 07:18:01;;;;;;;14.97;4.50;;;13.00;99.90;;;;;;4194352;28;20313;-77
2023/05/26 07:20:03;;;;;;;11.67;3.53;;;13.10;99.90;;;;;;4194735;28;20232;-77
2023/05/26 07:22:05;;;;;;;15.80;4.60;;;13.20;99.90;;;;;;4195719;28;20676;-77
2023/05/26 07:24:07;;;;;;;13.77;4.13;;;13.30;99.90;;;;;;4193994;28;20613;-77
2023/05/26 07:26:09;;;;;;;11.63;3.83;;;13.30;99.90;;;;;;4195468;28;20951;-77
2023/05/26 07:28:13;;;;;;;14.80;4.67;;;13.40;99.90;;;;;;4193635;28;20209;-76
2023/05/26 07:30:15;;;;;;;22.10;5.07;;;13.50;99.90;;;;;;4197994;28;20227;-77
2023/05/26 07:32:18;;;;;;;13.03;4.50;;;13.60;99.90;;;;;;4196317;28;20272;-77
2023/05/26 07:34:20;;;;;;;15.30;5.03;;;13.60;99.90;;;;;;4195666;28;20204;-78
2023/05/26 07:36:22;;;;;;;16.83;4.40;;;13.70;99.90;;;;;;4198238;28;20213;-77
2023/05/26 07:38:24;;;;;;;14.43;4.27;;;13.70;99.90;;;;;;4195549;28;20732;-77
2023/05/26 07:40:29;;;;;;;12.67;4.33;;;13.70;99.90;;;;;;4192691;28;20233;-77
2023/05/26 07:42:31;;;;;;;14.87;4.63;;;13.80;99.90;;;;;;4195194;28;20648;-78
2023/05/26 07:44:34;;;;;;;17.37;4.13;;;13.80;99.90;;;;;;4200993;28;20203;-76
2023/05/26 07:46:36;;;;;;;17.70;4.47;;;13.80;99.90;;;;;;4199395;28;20229;-78
2023/05/26 07:48:38;;;;;;;16.20;4.40;;;13.90;99.90;;;;;;4199165;28;20271;-77
2023/05/26 07:50:39;;;;;;;18.93;4.73;;;14.00;99.90;;;;;;4193913;28;20436;-78
2023/05/26 07:52:41;;;;;;;12.30;3.50;;;14.10;99.90;;;;;;4193294;28;20651;-78
2023/05/26 07:54:43;;;;;;;17.23;4.60;;;14.10;99.90;;;;;;4195874;28;20276;-78
2023/05/26 07:56:45;;;;;;;16.53;4.60;;;14.20;99.90;;;;;;4195931;28;20247;-78
2023/05/26 07:58:50;;;;;;;9.93;3.90;;;14.30;99.90;;;;;;4192595;28;20260;-78
2023/05/26 08:00:53;;;;;;;18.90;4.13;;;14.30;99.90;;;;;;4198469;28;20777;-78
2023/05/26 08:02:55;;;;;;;15.17;3.63;;;14.40;99.90;;;;;;4194745;28;20238;-78
2023/05/26 08:04:57;;;;;;;13.53;3.80;;;14.50;99.90;;;;;;4195306;28;20302;-78
2023/05/26 08:06:59;;;;;;;10.57;3.63;;;14.50;99.90;;;;;;4193915;28;20241;-78
2023/05/26 08:09:01;;;;;;;10.23;3.30;;;14.60;99.90;;;;;;4196055;28;20212;-79
2023/05/26 08:11:03;;;;;;;10.13;3.70;;;14.70;99.90;;;;;;4194227;28;20246;-78
2023/05/26 08:13:05;;;;;;;13.33;3.97;;;14.80;99.90;;;;;;4193237;28;20301;-79
2023/05/26 08:15:13;;;;;;;14.17;4.00;;;14.80;99.90;;;;;;4195188;28;20806;-79
2023/05/26 08:17:17;;;;;;;18.73;4.20;;;14.90;99.90;;;;;;4195601;28;20212;-78
2023/05/26 08:19:19;;;;;;;16.83;4.20;;;15.00;99.90;;;;;;4192377;28;20304;-78
2023/05/26 08:21:21;;;;;;;17.67;4.40;;;15.00;99.90;;;;;;4195012;28;20212;-78
2023/05/26 08:23:22;;;;;;;12.87;3.87;;;15.00;99.90;;;;;;4197748;28;20201;-78
2023/05/26 08:25:24;;;;;;;14.07;3.87;;;15.10;99.90;;;;;;4197980;28;20231;-78
2023/05/26 08:27:27;;;;;;;13.23;3.63;;;15.10;99.90;;;;;;4198275;28;20589;-77
2023/05/26 08:29:29;;;;;;;15.00;3.60;;;15.20;99.90;;;;;;4197529;28;20607;-80
2023/05/26 08:31:31;;;;;;;13.03;3.67;;;15.20;99.90;;;;;;4197712;28;20309;-79
2023/05/26 08:33:34;;;;;;;11.87;3.60;;;15.20;99.90;;;;;;4195598;28;20297;-78
2023/05/26 08:35:36;;;;;;;12.50;3.80;;;15.20;99.90;;;;;;4194619;28;20589;-78
2023/05/26 08:37:38;;;;;;;19.63;3.90;;;15.30;99.90;;;;;;4197120;28;20306;-78
2023/05/26 08:39:41;;;;;;;11.43;4.00;;;15.40;99.90;;;;;;4198122;28;20450;-78
2023/05/26 08:41:48;;;;;;;9.30;3.67;;;15.40;99.90;;;;;;4190421;28;20289;-78
2023/05/26 08:43:53;;;;;;;13.23;3.97;;;15.50;99.90;;;;;;4195946;28;20272;-79
2023/05/26 08:45:56;;;;;;;13.43;4.00;;;15.50;99.90;;;;;;4195883;28;20290;-78
2023/05/26 08:48:01;;;;;;;11.90;3.80;;;15.50;99.90;;;;;;4197919;28;20654;-78
2023/05/26 08:50:06;;;;;;;13.43;4.00;;;15.60;99.90;;;;;;4192895;28;20238;-78
2023/05/26 08:52:10;;;;;;;14.63;3.87;;;15.60;99.90;;;;;;4194980;28;20235;-78
2023/05/26 08:54:12;;;;;;;14.77;4.10;;;15.60;99.90;;;;;;4197726;28;20209;-78
2023/05/26 08:56:14;;;;;;;17.03;4.07;;;15.70;99.90;;;;;;4196256;28;20296;-78
2023/05/26 08:58:18;;;;;;;18.30;4.40;;;15.70;99.90;;;;;;4196462;28;20233;-79
2023/05/26 09:00:21;;;;;;;10.97;3.40;;;15.80;99.90;;;;;;4196679;28;20232;-78
2023/05/26 09:02:23;;;;;;;14.73;4.30;;;15.80;99.90;;;;;;4191942;28;20223;-78
2023/05/26 09:04:26;;;;;;;15.23;4.33;;;15.90;99.90;;;;;;4191197;28;20260;-79
2023/05/26 09:06:31;;;;;;;12.93;4.20;;;15.90;99.90;;;;;;4197069;28;20576;-78
2023/05/26 09:08:33;;;;;;;20.27;4.30;;;16.00;99.90;;;;;;4202739;28;20522;-78
2023/05/26 09:10:35;;;;;;;12.40;3.97;;;16.00;99.90;;;;;;4206743;28;20320;-78
2023/05/26 09:12:37;;;;;;;15.23;4.13;;;16.10;99.90;;;;;;4204132;28;20236;-78
2023/05/26 09:14:40;;;;;;;14.33;3.73;;;16.20;99.90;;;;;;4209026;28;20198;-77
2023/05/26 09:16:42;;;;;;;14.50;3.23;;;16.20;99.90;;;;;;4207540;28;20210;-78
2023/05/26 09:18:43;;;;;;;16.60;4.00;;;16.20;99.90;;;;;;4208375;28;20221;-78
2023/05/26 09:20:47;;;;;;;12.57;3.50;;;16.30;99.90;;;;;;4204373;28;20291;-78
2023/05/26 09:22:51;;;;;;;10.97;3.47;;;16.30;99.90;;;;;;4200491;28;20553;-78
2023/05/26 09:24:52;;;;;;;16.33;3.70;;;16.40;99.90;;;;;;4198054;28;20210;-77
2023/05/26 09:26:54;;;;;;;11.87;3.60;;;16.50;99.90;;;;;;4197204;28;20731;-78
2023/05/26 09:28:56;;;;;;;15.53;4.10;;;16.60;99.90;;;;;;4197527;28;20209;-78
2023/05/26 09:30:58;;;;;;;15.90;4.17;;;16.70;99.90;;;;;;4200761;28;20245;-78
2023/05/26 09:33:00;;;;;;;16.70;4.40;;;16.80;99.90;;;;;;4207179;28;20233;-79
2023/05/26 09:35:04;;;;;;;12.77;3.93;;;16.90;99.90;;;;;;4203513;28;20277;-78
2023/05/26 09:37:09;;;;;;;16.57;4.67;;;17.00;99.90;;;;;;4196103;28;20305;-78
2023/05/26 09:39:14;;;;;;;12.73;3.60;;;17.10;99.90;;;;;;4199728;28;20238;-79
2023/05/26 09:41:19;;;;;;;16.63;3.80;;;17.20;99.90;;;;;;4199420;28;20233;-81
2023/05/26 09:43:23;;;;;;;14.80;3.93;;;17.30;99.90;;;;;;4203558;28;20208;-81
2023/05/26 09:45:25;;;;;;;14.47;4.20;;;17.40;99.90;;;;;;4196628;28;20298;-83
2023/05/26 09:47:32;;;;;;;15.23;3.90;;;17.50;99.90;;;;;;4205929;28;20260;-79
2023/05/26 09:49:37;;;;;;;14.57;4.13;;;17.70;99.90;;;;;;4205374;28;20309;-79
2023/05/26 09:51:39;;;;;;;14.17;4.00;;;17.80;99.90;;;;;;4196180;28;21791;-77
2023/05/26 09:53:41;;;;;;;15.77;4.00;;;17.90;99.90;;;;;;4196130;28;20432;-79
2023/05/26 09:55:45;;;;;;;14.70;3.77;;;18.00;99.90;;;;;;4195757;28;20214;-80
2023/05/26 09:57:47;;;;;;;12.23;3.57;;;18.20;99.90;;;;;;4197360;28;20331;-80
2023/05/26 09:59:54;;;;;;;12.10;3.93;;;18.20;99.90;;;;;;4198098;28;20286;-80
2023/05/26 10:01:57;;;;;;;13.80;4.10;;;18.30;99.90;;;;;;4197982;28;20282;-79
2023/05/26 10:04:00;;;;;;;13.53;3.60;;;18.40;99.90;;;;;;4198272;28;20242;-78
2023/05/26 10:06:02;;;;;;;16.07;3.93;;;18.50;99.90;;;;;;4194561;28;20320;-78
2023/05/26 10:08:06;;;;;;;11.70;3.97;;;18.60;99.90;;;;;;4200353;28;20217;-78
2023/05/26 10:10:14;;;;;;;12.33;3.57;;;18.60;99.90;;;;;;4202977;28;20254;-77
2023/05/26 10:12:20;;;;;;;10.77;3.77;;;18.60;99.90;;;;;;4200415;28;20220;-77
2023/05/26 10:14:22;;;;;;;14.07;3.70;;;18.70;99.90;;;;;;4198881;28;20278;-76
2023/05/26 10:16:25;;;;;;;13.30;3.50;;;18.80;99.90;;;;;;4202624;28;20303;-78
2023/05/26 10:18:27;;;;;;;11.87;3.30;;;18.90;99.90;;;;;;4200278;28;20300;-79
2023/05/26 10:20:30;;;;;;;13.57;3.90;;;19.00;99.90;;;;;;4199318;28;20699;-79
2023/05/26 10:22:39;;;;;;;15.80;3.90;;;19.20;99.90;;;;;;4197843;28;20211;-78
2023/05/26 10:24:46;;;;;;;13.53;3.77;;;19.20;99.90;;;;;;4195929;28;20206;-79
2023/05/26 10:26:55;;;;;;;18.83;4.00;;;19.20;99.90;;;;;;4198119;28;20213;-81
2023/05/26 10:29:04;;;;;;;9.00;3.40;;;19.30;99.90;;;;;;4197547;28;20231;-80
2023/05/26 10:31:06;;;;;;;14.37;3.90;;;19.30;99.90;;;;;;4196757;28;20237;-81
2023/05/26 10:33:10;;;;;;;12.67;3.00;;;19.30;99.90;;;;;;4196166;28;20244;-80
2023/05/26 10:35:29;;;;;;;10.63;3.47;;;19.40;99.90;;;;;;4196321;28;20210;-80